Time;durP1;ratioP1;P1;durP2;ratioP2;P2;SDS_P1;SDS_P2;PMS_P1;PMS_P2;Temp;Humidity;BMP_temperature;BMP_pressure;BME280_temperature;BME280_humidity;BME280_pressure;Samples;Min_cycle;Max_cycle;Signal;HPM_P1;HPM_P2
2022/08/19 00:00:38;;;;;;;;;;;;;;;23.40;60.17;101035.53;1025775;28;733;-67
2022/08/19 00:01:29;;;;;;;;;;;;;;;23.40;60.20;101042.84;1026463;28;752;-67
2022/08/19 00:02:19;;;;;;;;;;;;;;;23.38;60.45;101040.28;1025308;29;673;-67
2022/08/19 00:03:10;;;;;;;;;;;;;;;23.38;60.11;101034.00;1025761;28;626;-67
2022/08/19 00:04:00;;;;;;;;;;;;;;;23.37;60.41;101030.44;1025819;28;650;-67
2022/08/19 00:04:52;;;;;;;;;;;;;;;23.38;60.20;101034.00;1025722;28;646;-67
2022/08/19 00:05:42;;;;;;;;;;;;;;;23.38;60.39;101039.44;1025297;29;639;-67
2022/08/19 00:06:33;;;;;;;;;;;;;;;23.35;60.16;101029.78;1025843;28;721;-67
2022/08/19 00:07:23;;;;;;;;;;;;;;;23.37;60.59;101032.31;1025915;28;678;-67
2022/08/19 00:08:14;;;;;;;;;;;;;;;23.34;60.35;101028.06;1026332;28;775;-67
2022/08/19 00:09:04;;;;;;;;;;;;;;;23.34;60.50;101024.50;1029342;28;698;-67
2022/08/19 00:09:55;;;;;;;;;;;;;;;23.33;60.27;101030.97;1029470;28;654;-67
2022/08/19 00:10:47;;;;;;;;;;;;;;;23.33;60.47;101029.09;1024784;29;642;-67
2022/08/19 00:11:38;;;;;;;;;;;;;;;23.33;60.60;101031.81;1024964;28;685;-67
2022/08/19 00:12:28;;;;;;;;;;;;;;;23.31;60.58;101035.72;1030767;28;1210;-67
2022/08/19 00:13:19;;;;;;;;;;;;;;;23.31;60.48;101031.16;1033177;28;622;-67
2022/08/19 00:14:09;;;;;;;;;;;;;;;23.30;60.72;101037.59;1033218;28;654;-67
2022/08/19 00:15:00;;;;;;;;;;;;;;;23.32;60.66;101032.00;1033202;28;696;-67
2022/08/19 00:15:51;;;;;;;;;;;;;;;23.31;60.48;101024.84;1033276;28;654;-67
2022/08/19 00:16:41;;;;;;;;;;;;;;;23.32;60.22;101035.56;1033873;28;630;-67
2022/08/19 00:17:32;;;;;;;;;;;;;;;23.32;60.65;101045.59;1033214;28;674;-67
2022/08/19 00:18:22;;;;;;;;;;;;;;;23.32;60.22;101037.44;1033188;28;705;-67
2022/08/19 00:19:13;;;;;;;;;;;;;;;23.31;60.28;101039.31;1033231;28;681;-67
2022/08/19 00:20:03;;;;;;;;;;;;;;;23.32;60.54;101037.44;1033148;28;662;-67
2022/08/19 00:20:54;;;;;;;;;;;;;;;23.32;60.38;101040.16;1033245;28;630;-67
2022/08/19 00:21:44;;;;;;;;;;;;;;;23.26;60.57;101040.88;1033220;28;661;-67
2022/08/19 00:22:35;;;;;;;;;;;;;;;23.29;60.16;101041.34;1033181;28;638;-67
2022/08/19 00:23:25;;;;;;;;;;;;;;;23.30;60.27;101048.47;1033220;28;666;-67
2022/08/19 00:24:15;;;;;;;;;;;;;;;23.30;60.14;101042.19;1033213;28;631;-67
2022/08/19 00:25:06;;;;;;;;;;;;;;;23.28;60.47;101049.72;1033207;28;669;-67
2022/08/19 00:25:56;;;;;;;;;;;;;;;23.28;60.18;101044.28;1033203;28;627;-67
2022/08/19 00:26:47;;;;;;;;;;;;;;;23.25;60.44;101041.91;1032923;28;691;-67
2022/08/19 00:27:37;;;;;;;;;;;;;;;23.24;60.77;101046.50;1033523;28;701;-67
2022/08/19 00:28:28;;;;;;;;;;;;;;;23.26;60.54;101046.31;1033192;28;709;-67
2022/08/19 00:29:18;;;;;;;;;;;;;;;23.25;60.47;101039.19;1033135;28;666;-67
2022/08/19 00:30:10;;;;;;;;;;;;;;;23.26;60.40;101044.44;1033030;28;1914;-67
2022/08/19 00:31:02;;;;;;;;;;;;;;;23.24;60.70;101040.22;1033765;28;681;-67
2022/08/19 00:31:54;;;;;;;;;;;;;;;23.24;60.46;101040.22;1032855;28;678;-67
2022/08/19 00:32:44;;;;;;;;;;;;;;;23.23;60.69;101033.91;1033636;28;645;-67
2022/08/19 00:33:35;;;;;;;;;;;;;;;23.22;60.52;101032.22;1033190;28;701;-67
2022/08/19 00:34:27;;;;;;;;;;;;;;;23.22;60.74;101028.66;1033105;28;779;-67
2022/08/19 00:35:18;;;;;;;;;;;;;;;23.24;60.39;101032.03;1032489;28;694;-67
2022/08/19 00:36:09;;;;;;;;;;;;;;;23.23;60.77;101030.34;1033430;28;650;-67
2022/08/19 00:36:59;;;;;;;;;;;;;;;23.24;60.79;101037.50;1033157;28;626;-67
2022/08/19 00:37:49;;;;;;;;;;;;;;;23.22;60.20;101029.50;1033284;28;646;-67
2022/08/19 00:38:43;;;;;;;;;;;;;;;23.22;60.66;101026.78;1033298;28;603;-67
2022/08/19 00:39:34;;;;;;;;;;;;;;;23.20;60.53;101032.41;1033728;28;677;-67
2022/08/19 00:40:25;;;;;;;;;;;;;;;23.22;60.60;101031.38;1033225;28;720;-67
2022/08/19 00:41:17;;;;;;;;;;;;;;;23.20;60.40;101021.53;1033179;28;623;-67
2022/08/19 00:42:07;;;;;;;;;;;;;;;23.19;60.25;101024.41;1033101;28;682;-67
2022/08/19 00:42:58;;;;;;;;;;;;;;;23.18;60.56;101026.28;1033131;28;805;-67
2022/08/19 00:43:48;;;;;;;;;;;;;;;23.19;60.69;101024.41;1033201;28;654;-67
2022/08/19 00:44:38;;;;;;;;;;;;;;;23.20;60.73;101031.53;1033092;28;729;-67
2022/08/19 00:45:31;;;;;;;;;;;;;;;23.17;60.56;101030.03;1033109;28;708;-67
2022/08/19 00:46:21;;;;;;;;;;;;;;;23.15;60.42;101032.06;1033048;28;654;-67
2022/08/19 00:47:12;;;;;;;;;;;;;;;23.18;60.31;101029.00;1033207;28;694;-67
2022/08/19 00:48:05;;;;;;;;;;;;;;;23.17;60.54;101027.31;1033106;28;681;-67
2022/08/19 00:48:57;;;;;;;;;;;;;;;23.19;60.46;101033.41;1033047;28;650;-67
2022/08/19 00:49:50;;;;;;;;;;;;;;;23.17;60.75;101030.03;1032392;28;693;-66
2022/08/19 00:50:42;;;;;;;;;;;;;;;23.16;60.84;101025.63;1032704;28;638;-67
2022/08/19 00:51:34;;;;;;;;;;;;;;;23.14;60.52;101030.38;1029336;28;705;-67
2022/08/19 00:52:24;;;;;;;;;;;;;;;23.12;60.46;101021.53;1028792;28;635;-67
2022/08/19 00:53:15;;;;;;;;;;;;;;;23.13;60.79;101025.13;1031945;28;690;-67
2022/08/19 00:54:05;;;;;;;;;;;;;;;23.13;60.84;101022.41;1033631;28;681;-67
2022/08/19 00:54:56;;;;;;;;;;;;;;;23.12;60.70;101021.53;1033107;28;705;-67
2022/08/19 00:55:46;;;;;;;;;;;;;;;23.14;60.82;101022.22;1032828;28;697;-67
2022/08/19 00:56:37;;;;;;;;;;;;;;;23.14;60.72;101024.09;1032875;28;764;-67
2022/08/19 00:57:27;;;;;;;;;;;;;;;23.13;60.61;101020.53;1033654;28;705;-67
2022/08/19 00:58:18;;;;;;;;;;;;;;;23.12;60.61;101017.97;1033033;28;614;-67
2022/08/19 00:59:08;;;;;;;;;;;;;;;23.13;60.96;101025.13;1033014;28;725;-67
2022/08/19 00:59:59;;;;;;;;;;;;;;;23.13;60.40;101020.53;1033137;28;1003;-67
2022/08/19 01:00:49;;;;;;;;;;;;;;;23.14;60.55;101018.66;1033032;28;646;-67
2022/08/19 01:01:40;;;;;;;;;;;;;;;23.14;60.40;101026.81;1033160;28;720;-67
2022/08/19 01:02:30;;;;;;;;;;;;;;;23.13;60.89;101025.97;1033095;28;701;-66
2022/08/19 01:03:21;;;;;;;;;;;;;;;23.12;60.75;101026.13;1033007;28;769;-67
2022/08/19 01:04:11;;;;;;;;;;;;;;;23.11;60.96;101024.47;1032563;28;673;-67
2022/08/19 01:05:02;;;;;;;;;;;;;;;23.11;60.81;101025.28;1033046;28;636;-67
2022/08/19 01:05:52;;;;;;;;;;;;;;;23.11;60.52;101021.75;1033132;28;662;-67
2022/08/19 01:06:42;;;;;;;;;;;;;;;23.11;60.74;101028.00;1033170;28;693;-67
2022/08/19 01:07:33;;;;;;;;;;;;;;;23.09;60.88;101023.78;1032987;28;665;-67
2022/08/19 01:08:23;;;;;;;;;;;;;;;23.10;60.40;101018.19;1033075;28;709;-67
2022/08/19 01:09:14;;;;;;;;;;;;;;;23.10;60.81;101022.78;1033055;28;682;-67
2022/08/19 01:10:04;;;;;;;;;;;;;;;23.08;60.62;101019.38;1033052;28;650;-67
2022/08/19 01:10:55;;;;;;;;;;;;;;;23.06;60.59;101026.84;1033096;28;658;-68
2022/08/19 01:11:45;;;;;;;;;;;;;;;23.07;60.72;101025.84;1033192;28;732;-67
2022/08/19 01:12:36;;;;;;;;;;;;;;;23.07;61.01;101032.13;1029442;28;1217;-67
2022/08/19 01:13:26;;;;;;;;;;;;;;;23.08;61.03;101032.97;1029038;28;662;-67
2022/08/19 01:14:17;;;;;;;;;;;;;;;23.07;60.55;101032.13;1028997;28;627;-67
2022/08/19 01:15:07;;;;;;;;;;;;;;;23.07;61.01;101028.56;1029544;28;689;-67
2022/08/19 01:15:58;;;;;;;;;;;;;;;23.04;60.53;101027.03;1029051;28;642;-67
2022/08/19 01:16:48;;;;;;;;;;;;;;;23.05;60.58;101034.16;1029147;28;661;-67
2022/08/19 01:17:38;;;;;;;;;;;;;;;23.05;60.71;101023.28;1029068;28;652;-67
2022/08/19 01:18:29;;;;;;;;;;;;;;;23.04;60.50;101032.47;1028611;28;705;-67
2022/08/19 01:19:19;;;;;;;;;;;;;;;23.03;61.03;101025.34;1028993;28;654;-67
2022/08/19 01:20:10;;;;;;;;;;;;;;;23.01;60.61;101027.38;1029009;28;650;-67
2022/08/19 01:21:01;;;;;;;;;;;;;;;23.02;60.79;101029.06;1029037;28;691;-67
2022/08/19 01:21:51;;;;;;;;;;;;;;;23.00;60.69;101031.13;1029059;28;653;-67
2022/08/19 01:22:42;;;;;;;;;;;;;;;23.01;60.83;101030.09;1028990;28;643;-67
2022/08/19 01:23:44;;;;;;;;;;;;;;;23.02;61.01;101028.22;1028560;28;741;-67
2022/08/19 01:24:34;;;;;;;;;;;;;;;22.99;60.91;101021.28;1029009;28;689;-67
2022/08/19 01:25:25;;;;;;;;;;;;;;;23.01;61.02;101030.09;1029025;28;697;-67
2022/08/19 01:26:16;;;;;;;;;;;;;;;23.01;60.70;101030.09;1028934;28;698;-67
2022/08/19 01:27:07;;;;;;;;;;;;;;;23.02;60.93;101022.78;1028722;28;669;-67
2022/08/19 01:27:57;;;;;;;;;;;;;;;23.00;60.90;101025.69;1029273;28;645;-67
2022/08/19 01:28:48;;;;;;;;;;;;;;;23.01;60.93;101031.97;1029698;28;610;-67
2022/08/19 01:29:38;;;;;;;;;;;;;;;23.02;60.93;101029.06;1030273;28;637;-67
2022/08/19 01:30:30;;;;;;;;;;;;;;;23.01;60.67;101031.97;1028919;28;1911;-67
2022/08/19 01:31:21;;;;;;;;;;;;;;;23.00;60.95;101027.56;1028687;28;716;-67
2022/08/19 01:32:11;;;;;;;;;;;;;;;23.01;60.70;101042.84;1025295;28;611;-67
2022/08/19 01:33:02;;;;;;;;;;;;;;;22.98;61.02;101032.31;1024804;28;616;-67
2022/08/19 01:33:52;;;;;;;;;;;;;;;22.99;60.61;101034.00;1029038;28;673;-67
2022/08/19 01:34:46;;;;;;;;;;;;;;;22.96;61.02;101032.50;1028955;28;670;-67
2022/08/19 01:35:37;;;;;;;;;;;;;;;22.97;60.93;101031.47;1028749;28;701;-67
2022/08/19 01:36:27;;;;;;;;;;;;;;;22.98;60.94;101032.31;1029245;28;657;-67
2022/08/19 01:37:18;;;;;;;;;;;;;;;22.98;60.92;101027.72;1025259;28;868;-67
2022/08/19 01:38:09;;;;;;;;;;;;;;;22.97;60.84;101034.19;1025278;28;725;-67
2022/08/19 01:39:00;;;;;;;;;;;;;;;22.96;61.02;101029.78;1030025;28;621;-67
2022/08/19 01:39:50;;;;;;;;;;;;;;;22.96;60.77;101027.06;1029023;28;669;-67
2022/08/19 01:40:42;;;;;;;;;;;;;;;22.93;60.86;101030.13;1028943;28;641;-67
2022/08/19 01:41:32;;;;;;;;;;;;;;;22.94;60.73;101031.81;1029599;28;717;-67
2022/08/19 01:42:22;;;;;;;;;;;;;;;22.94;61.14;101026.38;1028982;28;665;-67
2022/08/19 01:43:14;;;;;;;;;;;;;;;22.93;61.03;101029.31;1028925;28;750;-67
2022/08/19 01:44:04;;;;;;;;;;;;;;;22.93;60.80;101037.44;1029006;28;654;-67
2022/08/19 01:44:55;;;;;;;;;;;;;;;22.95;60.78;101038.94;1028887;28;638;-67
2022/08/19 01:45:45;;;;;;;;;;;;;;;22.94;60.76;101033.69;1029041;28;737;-67
2022/08/19 01:46:35;;;;;;;;;;;;;;;22.91;61.15;101032.19;1028928;28;666;-67
2022/08/19 01:47:26;;;;;;;;;;;;;;;22.89;61.30;101030.66;1028583;28;677;-67
2022/08/19 01:48:16;;;;;;;;;;;;;;;22.88;60.95;101035.25;1028940;28;709;-67
2022/08/19 01:49:07;;;;;;;;;;;;;;;22.93;60.87;101035.56;1028922;28;729;-66
2022/08/19 01:49:58;;;;;;;;;;;;;;;22.92;60.63;101041.19;1029509;28;677;-66
2022/08/19 01:50:48;;;;;;;;;;;;;;;22.91;61.02;101039.50;1029031;28;697;-66
2022/08/19 01:51:39;;;;;;;;;;;;;;;22.90;61.22;101044.09;1028981;28;627;-66
2022/08/19 01:52:29;;;;;;;;;;;;;;;22.91;61.14;101040.34;1029086;28;732;-66
2022/08/19 01:53:19;;;;;;;;;;;;;;;22.91;61.00;101037.63;1028639;28;663;-66
2022/08/19 01:54:10;;;;;;;;;;;;;;;22.91;60.85;101036.78;1029268;28;673;-66
2022/08/19 01:55:00;;;;;;;;;;;;;;;22.91;60.74;101045.78;1025315;28;619;-66
2022/08/19 01:55:51;;;;;;;;;;;;;;;22.88;61.28;101040.69;1025328;28;693;-65
2022/08/19 01:56:41;;;;;;;;;;;;;;;22.89;61.15;101036.94;1029953;28;650;-66
2022/08/19 01:57:32;;;;;;;;;;;;;;;22.88;61.22;101040.69;1028861;28;1028;-65
2022/08/19 01:58:22;;;;;;;;;;;;;;;22.88;61.17;101037.13;1028960;28;654;-65
2022/08/19 01:59:12;;;;;;;;;;;;;;;22.87;60.90;101033.56;1028988;28;623;-66
2022/08/19 02:00:05;;;;;;;;;;;;;;;22.88;60.84;101035.25;1028940;28;685;-66
2022/08/19 02:00:55;;;;;;;;;;;;;;;22.83;61.06;101034.91;1029449;28;642;-66
2022/08/19 02:01:45;;;;;;;;;;;;;;;22.81;61.17;101037.81;1028908;28;647;-66
2022/08/19 02:02:36;;;;;;;;;;;;;;;22.83;60.96;101034.91;1028967;28;720;-66
2022/08/19 02:03:26;;;;;;;;;;;;;;;22.87;60.86;101047.16;1028965;28;635;-66
2022/08/19 02:04:17;;;;;;;;;;;;;;;22.85;61.31;101043.75;1028973;28;665;-65
2022/08/19 02:05:08;;;;;;;;;;;;;;;22.83;61.30;101040.34;1028928;28;761;-66
2022/08/19 02:05:59;;;;;;;;;;;;;;;22.82;60.96;101044.94;1028869;28;737;-66
2022/08/19 02:06:50;;;;;;;;;;;;;;;22.82;61.40;101041.38;1029585;28;689;-66
2022/08/19 02:07:41;;;;;;;;;;;;;;;22.79;61.06;101039.84;1029450;28;559;-66
2022/08/19 02:08:31;;;;;;;;;;;;;;;22.81;61.17;101039.69;1028937;28;638;-66
2022/08/19 02:09:22;;;;;;;;;;;;;;;22.82;61.36;101046.81;1028881;28;678;-66
2022/08/19 02:10:12;;;;;;;;;;;;;;;22.85;61.31;101041.03;1028904;28;1951;-66
2022/08/19 02:11:03;;;;;;;;;;;;;;;22.83;61.27;101037.63;1029523;28;634;-66
2022/08/19 02:11:53;;;;;;;;;;;;;;;22.79;61.31;101039.84;1029044;28;693;-66
2022/08/19 02:12:44;;;;;;;;;;;;;;;22.79;61.29;101039.84;1025534;28;666;-66
2022/08/19 02:13:34;;;;;;;;;;;;;;;22.78;61.37;101034.59;1026069;28;674;-66
2022/08/19 02:14:24;;;;;;;;;;;;;;;22.78;61.20;101040.88;1026029;28;699;-66
2022/08/19 02:15:15;;;;;;;;;;;;;;;22.79;61.00;101033.56;1026037;28;785;-66
2022/08/19 02:16:05;;;;;;;;;;;;;;;22.80;61.29;101046.13;1025848;28;558;-66
2022/08/19 02:16:56;;;;;;;;;;;;;;;22.79;61.30;101042.56;1029203;28;666;-66
2022/08/19 02:17:46;;;;;;;;;;;;;;;22.79;61.05;101041.72;1028671;28;650;-66
2022/08/19 02:18:37;;;;;;;;;;;;;;;22.76;61.47;101040.16;1025227;28;650;-66
2022/08/19 02:19:27;;;;;;;;;;;;;;;22.76;61.32;101039.31;1025529;28;729;-67
2022/08/19 02:20:17;;;;;;;;;;;;;;;22.78;61.14;101045.44;1024914;29;680;-66
2022/08/19 02:21:08;;;;;;;;;;;;;;;22.75;61.05;101045.78;1026075;28;720;-66
2022/08/19 02:21:58;;;;;;;;;;;;;;;22.75;60.97;101054.75;1025527;28;717;-66
2022/08/19 02:22:49;;;;;;;;;;;;;;;22.74;61.15;101052.25;1026014;28;647;-66
2022/08/19 02:23:39;;;;;;;;;;;;;;;22.76;61.37;101045.59;1025943;28;662;-66
2022/08/19 02:24:30;;;;;;;;;;;;;;;22.73;61.27;101050.56;1025397;28;630;-66
2022/08/19 02:25:20;;;;;;;;;;;;;;;22.73;60.96;101050.56;1025402;28;647;-66
2022/08/19 02:26:12;;;;;;;;;;;;;;;22.73;61.31;101040.53;1024960;29;686;-66
2022/08/19 02:27:02;;;;;;;;;;;;;;;22.75;61.12;101043.91;1025039;29;662;-66
2022/08/19 02:27:53;;;;;;;;;;;;;;;22.73;61.01;101050.56;1026129;28;713;-66
2022/08/19 02:28:44;;;;;;;;;;;;;;;22.68;61.35;101042.06;1024842;29;666;-66
2022/08/19 02:29:34;;;;;;;;;;;;;;;22.70;61.51;101046.31;1025983;28;753;-66
2022/08/19 02:30:25;;;;;;;;;;;;;;;22.70;61.22;101046.31;1025353;28;1899;-67
2022/08/19 02:31:15;;;;;;;;;;;;;;;22.70;61.00;101049.03;1025123;28;695;-66
2022/08/19 02:32:06;;;;;;;;;;;;;;;22.71;61.30;101039.84;1029213;28;779;-66
2022/08/19 02:32:57;;;;;;;;;;;;;;;22.74;61.38;101041.38;1028557;28;650;-66
2022/08/19 02:33:47;;;;;;;;;;;;;;;22.73;61.20;101040.53;1024625;29;726;-66
2022/08/19 02:34:38;;;;;;;;;;;;;;;22.70;61.38;101040.03;1025247;28;642;-67
2022/08/19 02:35:28;;;;;;;;;;;;;;;22.66;61.40;101038.66;1026198;28;634;-66
2022/08/19 02:36:19;;;;;;;;;;;;;;;22.69;61.19;101044.59;1026815;28;709;-66
2022/08/19 02:38:24;;;;;;;;;;;;;;;22.68;61.19;101042.06;1026581;28;654;-66
2022/08/19 02:38:25;;;;;;;;;;;;;;;22.71;61.29;101052.59;1025575;29;694;-67
2022/08/19 02:39:16;;;;;;;;;;;;;;;22.71;61.00;101047.16;1026667;28;741;-66
2022/08/19 02:40:06;;;;;;;;;;;;;;;22.68;61.41;101044.78;1026085;28;912;-66
2022/08/19 02:40:57;;;;;;;;;;;;;;;22.67;61.27;101052.09;1026126;28;698;-67
2022/08/19 02:41:49;;;;;;;;;;;;;;;22.70;61.04;101045.47;1025679;29;611;-67
2022/08/19 02:42:40;;;;;;;;;;;;;;;22.64;61.41;101043.44;1029812;28;733;-66
2022/08/19 02:43:31;;;;;;;;;;;;;;;22.64;61.29;101043.44;1029865;28;785;-66
2022/08/19 02:44:21;;;;;;;;;;;;;;;22.65;61.33;101042.41;1025602;28;659;-66
2022/08/19 02:45:11;;;;;;;;;;;;;;;22.64;61.28;101043.44;1026866;28;638;-66
2022/08/19 02:46:02;;;;;;;;;;;;;;;22.65;61.28;101045.13;1026130;28;646;-66
2022/08/19 02:46:52;;;;;;;;;;;;;;;22.67;61.26;101029.50;1026568;28;638;-66
2022/08/19 02:47:43;;;;;;;;;;;;;;;22.68;61.28;101033.91;1026038;28;797;-66
2022/08/19 02:48:33;;;;;;;;;;;;;;;22.68;61.50;101036.63;1029788;28;690;-66
2022/08/19 02:49:24;;;;;;;;;;;;;;;22.65;61.29;101036.97;1029894;28;599;-66
2022/08/19 02:50:14;;;;;;;;;;;;;;;22.63;61.52;101036.28;1025596;28;1895;-66
2022/08/19 02:51:05;;;;;;;;;;;;;;;22.61;61.24;101031.03;1026176;28;708;-66
2022/08/19 02:51:55;;;;;;;;;;;;;;;22.64;61.49;101027.13;1025562;29;1054;-66
2022/08/19 02:52:46;;;;;;;;;;;;;;;22.61;60.99;101035.63;1026731;28;662;-66
2022/08/19 02:53:37;;;;;;;;;;;;;;;22.63;60.99;101036.28;1026548;28;733;-66
2022/08/19 02:54:28;;;;;;;;;;;;;;;22.61;61.55;101033.75;1026101;28;744;-66
2022/08/19 02:55:18;;;;;;;;;;;;;;;22.59;61.63;101037.66;1025563;29;630;-66
2022/08/19 02:56:09;;;;;;;;;;;;;;;22.61;61.58;101041.91;1026652;28;649;-66
2022/08/19 02:56:59;;;;;;;;;;;;;;;22.61;61.46;101038.34;1026643;28;673;-66
2022/08/19 02:57:49;;;;;;;;;;;;;;;22.61;61.45;101024.75;1026647;28;741;-66
2022/08/19 02:58:40;;;;;;;;;;;;;;;22.63;60.97;101022.72;1026553;28;825;-66
2022/08/19 02:59:30;;;;;;;;;;;;;;;22.61;60.99;101019.31;1026575;28;662;-66
2022/08/19 03:00:21;;;;;;;;;;;;;;;22.58;61.21;101016.94;1026744;28;658;-66
2022/08/19 03:01:12;;;;;;;;;;;;;;;22.60;61.56;101017.63;1026580;28;720;-66
2022/08/19 03:02:02;;;;;;;;;;;;;;;22.61;61.40;101019.31;1029688;28;653;-66
2022/08/19 03:02:53;;;;;;;;;;;;;;;22.60;61.54;101020.34;1029803;28;706;-66
2022/08/19 03:03:43;;;;;;;;;;;;;;;22.59;61.12;101016.78;1025337;28;666;-66
2022/08/19 03:04:33;;;;;;;;;;;;;;;22.58;61.28;101012.34;1025888;28;669;-66
2022/08/19 03:05:24;;;;;;;;;;;;;;;22.57;61.50;101023.44;1026089;28;694;-66
2022/08/19 03:06:15;;;;;;;;;;;;;;;22.57;61.60;101023.44;1025465;29;690;-67
2022/08/19 03:07:05;;;;;;;;;;;;;;;22.57;61.60;101013.41;1025985;28;653;-67
2022/08/19 03:07:55;;;;;;;;;;;;;;;22.56;61.29;101022.56;1026705;28;701;-66
2022/08/19 03:08:46;;;;;;;;;;;;;;;22.57;61.55;101015.28;1026606;28;705;-66
2022/08/19 03:09:36;;;;;;;;;;;;;;;22.60;61.50;101023.06;1026475;28;646;-66
2022/08/19 03:10:27;;;;;;;;;;;;;;;22.61;61.20;101019.31;1026512;28;1902;-66
2022/08/19 03:11:17;;;;;;;;;;;;;;;22.58;60.94;101020.50;1029735;28;670;-66
2022/08/19 03:12:08;;;;;;;;;;;;;;;22.58;61.46;101019.66;1029795;28;627;-66
2022/08/19 03:12:58;;;;;;;;;;;;;;;22.58;61.18;101020.50;1025779;28;670;-67
2022/08/19 03:13:48;;;;;;;;;;;;;;;22.56;61.13;101022.56;1025407;29;650;-66
2022/08/19 03:14:39;;;;;;;;;;;;;;;22.56;61.77;101024.44;1024954;28;635;-66
2022/08/19 03:15:30;;;;;;;;;;;;;;;22.52;61.61;101027.50;1025486;29;642;-66
2022/08/19 03:16:20;;;;;;;;;;;;;;;22.54;61.70;101029.19;1024581;29;706;-66
2022/08/19 03:17:11;;;;;;;;;;;;;;;22.49;61.34;101022.41;1024917;29;1007;-66
2022/08/19 03:18:02;;;;;;;;;;;;;;;22.51;61.27;101031.22;1024884;29;620;-66
2022/08/19 03:18:52;;;;;;;;;;;;;;;22.54;61.56;101034.63;1025386;28;716;-66
2022/08/19 03:19:43;;;;;;;;;;;;;;;22.52;61.29;101030.22;1025497;28;606;-66
2022/08/19 03:20:33;;;;;;;;;;;;;;;22.52;61.44;101035.66;1024667;29;734;-66
2022/08/19 03:21:24;;;;;;;;;;;;;;;22.52;61.65;101023.94;1025147;29;646;-66
2022/08/19 03:22:14;;;;;;;;;;;;;;;22.53;61.54;101025.63;1024927;29;626;-66
2022/08/19 03:23:04;;;;;;;;;;;;;;;22.52;61.11;101026.66;1025409;29;768;-66
2022/08/19 03:23:55;;;;;;;;;;;;;;;22.48;61.43;101020.72;1025393;29;674;-66
2022/08/19 03:24:45;;;;;;;;;;;;;;;22.49;61.93;101022.41;1025443;29;741;-66
2022/08/19 03:25:36;;;;;;;;;;;;;;;22.54;61.19;101023.75;1025406;28;701;-66
2022/08/19 03:26:26;;;;;;;;;;;;;;;22.50;61.21;101017.81;1025533;28;759;-66
2022/08/19 03:27:17;;;;;;;;;;;;;;;22.47;61.66;101024.44;1024310;29;634;-66
2022/08/19 03:28:07;;;;;;;;;;;;;;;22.48;61.68;101020.72;1024660;29;769;-66
2022/08/19 03:28:58;;;;;;;;;;;;;;;22.47;61.39;101012.72;1024068;29;654;-66
2022/08/19 03:29:49;;;;;;;;;;;;;;;22.45;61.28;101021.06;1024852;29;727;-66
2022/08/19 03:30:40;;;;;;;;;;;;;;;22.44;61.36;101007.63;1025340;28;1969;-66
2022/08/19 03:31:31;;;;;;;;;;;;;;;22.45;61.35;101012.91;1025322;28;644;-67
2022/08/19 03:32:21;;;;;;;;;;;;;;;22.46;61.69;101011.03;1025386;28;626;-66
2022/08/19 03:33:12;;;;;;;;;;;;;;;22.48;61.33;101015.28;1024194;29;679;-66
2022/08/19 03:34:02;;;;;;;;;;;;;;;22.44;61.52;101011.22;1025378;28;642;-66
2022/08/19 03:34:52;;;;;;;;;;;;;;;22.43;61.75;101009.50;1025388;28;701;-66
2022/08/19 03:35:44;;;;;;;;;;;;;;;22.42;61.73;101007.81;1025301;28;618;-66
2022/08/19 03:36:35;;;;;;;;;;;;;;;22.43;61.30;101009.50;1024302;29;651;-66
2022/08/19 03:37:25;;;;;;;;;;;;;;;22.38;61.68;101011.06;1025376;28;650;-66
2022/08/19 03:38:16;;;;;;;;;;;;;;;22.44;61.65;101008.50;1024314;29;635;-66
2022/08/19 03:39:08;;;;;;;;;;;;;;;22.43;61.49;101016.81;1025435;28;623;-66
2022/08/19 03:39:58;;;;;;;;;;;;;;;22.43;61.29;101011.38;1024444;29;713;-66
2022/08/19 03:40:49;;;;;;;;;;;;;;;22.45;61.64;101012.06;1025429;28;623;-66
2022/08/19 03:41:39;;;;;;;;;;;;;;;22.42;61.30;101005.09;1025319;28;646;-66
2022/08/19 03:42:30;;;;;;;;;;;;;;;22.44;61.19;101010.34;1025366;28;634;-66
2022/08/19 03:43:20;;;;;;;;;;;;;;;22.42;61.67;101005.09;1025378;28;713;-66
2022/08/19 03:44:11;;;;;;;;;;;;;;;22.44;61.75;101003.06;1024364;29;639;-66
2022/08/19 03:45:01;;;;;;;;;;;;;;;22.44;61.35;101007.63;1024385;29;758;-66
2022/08/19 03:45:52;;;;;;;;;;;;;;;22.43;61.40;101009.50;1025259;28;686;-66
2022/08/19 03:46:42;;;;;;;;;;;;;;;22.41;61.75;101013.41;1024774;29;642;-66
2022/08/19 03:47:33;;;;;;;;;;;;;;;22.41;61.75;101005.25;1025314;29;787;-66
2022/08/19 03:48:23;;;;;;;;;;;;;;;22.40;61.61;101012.56;1024257;29;730;-66
2022/08/19 03:49:13;;;;;;;;;;;;;;;22.41;61.28;101011.53;1025347;28;635;-66
2022/08/19 03:50:04;;;;;;;;;;;;;;;22.38;61.35;101008.34;1025276;28;686;-66
2022/08/19 03:50:54;;;;;;;;;;;;;;;22.39;61.44;101007.34;1025329;29;716;-66
2022/08/19 03:51:45;;;;;;;;;;;;;;;22.41;61.34;101010.69;1025320;28;694;-66
2022/08/19 03:52:35;;;;;;;;;;;;;;;22.42;61.50;101017.81;1025437;28;717;-66
2022/08/19 03:53:26;;;;;;;;;;;;;;;22.41;61.25;101011.53;1025379;28;630;-66
2022/08/19 03:54:17;;;;;;;;;;;;;;;22.39;61.62;101013.59;1024414;29;671;-66
2022/08/19 03:55:07;;;;;;;;;;;;;;;22.37;61.44;101018.38;1025058;29;619;-66
2022/08/19 03:55:59;;;;;;;;;;;;;;;22.39;61.74;101024.44;1024750;29;635;-67
2022/08/19 03:56:50;;;;;;;;;;;;;;;22.40;61.17;101017.16;1025282;28;686;-66
2022/08/19 03:57:40;;;;;;;;;;;;;;;22.38;61.29;101020.06;1025316;28;705;-66
2022/08/19 03:58:31;;;;;;;;;;;;;;;22.37;61.80;101020.22;1024683;29;752;-66
2022/08/19 03:59:22;;;;;;;;;;;;;;;22.39;61.17;101020.91;1025273;28;615;-67
2022/08/19 04:00:12;;;;;;;;;;;;;;;22.35;61.49;101020.41;1024269;29;670;-66
2022/08/19 04:01:03;;;;;;;;;;;;;;;22.32;61.49;101019.88;1025309;28;701;-67
2022/08/19 04:01:53;;;;;;;;;;;;;;;22.32;61.58;101014.47;1025276;28;589;-66
2022/08/19 04:02:43;;;;;;;;;;;;;;;22.37;61.61;101015.66;1025206;28;547;-66
2022/08/19 04:03:35;;;;;;;;;;;;;;;22.39;61.59;101021.72;1025361;28;689;-66
2022/08/19 04:04:26;;;;;;;;;;;;;;;22.37;61.57;101021.06;1024113;29;759;-66
2022/08/19 04:05:16;;;;;;;;;;;;;;;22.35;61.45;101016.84;1025271;28;611;-66
2022/08/19 04:06:07;;;;;;;;;;;;;;;22.36;61.78;101024.81;1025230;28;1057;-66
2022/08/19 04:06:57;;;;;;;;;;;;;;;22.32;61.32;101020.75;1025244;29;682;-66
2022/08/19 04:07:48;;;;;;;;;;;;;;;22.35;61.40;101017.69;1025247;28;631;-66
2022/08/19 04:08:38;;;;;;;;;;;;;;;22.36;61.55;101021.25;1024429;29;670;-66
2022/08/19 04:09:28;;;;;;;;;;;;;;;22.32;61.42;101026.16;1024979;29;705;-66
2022/08/19 04:10:19;;;;;;;;;;;;;;;22.36;61.69;101024.81;1024836;29;1895;-67
2022/08/19 04:11:09;;;;;;;;;;;;;;;22.38;61.24;101025.50;1024188;29;663;-67
2022/08/19 04:12:00;;;;;;;;;;;;;;;22.38;61.25;101024.66;1024053;29;725;-67
2022/08/19 04:12:50;;;;;;;;;;;;;;;22.35;61.64;101028.53;1024823;28;662;-67
2022/08/19 04:13:41;;;;;;;;;;;;;;;22.37;61.16;101023.78;1025886;28;712;-66
2022/08/19 04:14:32;;;;;;;;;;;;;;;22.31;61.58;101024.47;1025873;28;770;-67
2022/08/19 04:15:22;;;;;;;;;;;;;;;22.35;61.43;101024.97;1025800;28;670;-67
2022/08/19 04:16:13;;;;;;;;;;;;;;;22.34;61.67;101020.56;1025796;28;736;-67
2022/08/19 04:17:04;;;;;;;;;;;;;;;22.35;61.58;101023.13;1025423;28;1055;-67
2022/08/19 04:17:54;;;;;;;;;;;;;;;22.30;61.62;101019.22;1025819;28;631;-67
2022/08/19 04:18:45;;;;;;;;;;;;;;;22.25;61.63;101019.72;1025875;28;681;-67
2022/08/19 04:19:36;;;;;;;;;;;;;;;22.26;61.76;101017.84;1025889;28;626;-67
2022/08/19 04:20:26;;;;;;;;;;;;;;;22.24;61.47;101012.59;1025747;28;634;-67
2022/08/19 04:21:16;;;;;;;;;;;;;;;22.26;61.56;101015.97;1025663;28;829;-67
2022/08/19 04:22:07;;;;;;;;;;;;;;;22.29;61.56;101022.94;1025803;28;662;-66
2022/08/19 04:22:57;;;;;;;;;;;;;;;22.29;61.47;101009.38;1025715;28;733;-66
2022/08/19 04:23:48;;;;;;;;;;;;;;;22.29;61.43;101009.38;1026092;28;725;-66
2022/08/19 04:24:38;;;;;;;;;;;;;;;22.26;61.79;101013.25;1025484;28;678;-67
2022/08/19 04:25:28;;;;;;;;;;;;;;;22.27;61.68;101016.81;1025324;28;654;-67
2022/08/19 04:26:19;;;;;;;;;;;;;;;22.24;61.59;101009.88;1025962;28;634;-67
2022/08/19 04:27:09;;;;;;;;;;;;;;;22.21;61.64;101006.69;1025001;28;724;-67